createdAt,value
2023-04-07T00:02:48.934Z,6.47
2023-04-07T00:06:52.768Z,3.83
2023-04-07T00:10:57.585Z,4.60
2023-04-07T00:15:01.448Z,6.43
2023-04-07T00:19:05.242Z,6.15
2023-04-07T00:23:08.580Z,5.28
2023-04-07T00:27:13.235Z,4.47
2023-04-07T00:31:16.485Z,5.53
2023-04-07T00:35:19.673Z,4.95
2023-04-07T00:39:23.500Z,5.40
2023-04-07T00:43:28.146Z,4.30
2023-04-07T00:47:31.575Z,5.57
2023-04-07T00:51:34.631Z,5.82
2023-04-07T00:55:38.769Z,6.28
2023-04-07T00:59:43.738Z,6.60
2023-04-07T01:03:51.966Z,5.30
2023-04-07T01:08:03.265Z,6.22
2023-04-07T01:12:12.069Z,4.72
2023-04-07T01:16:21.255Z,4.75
2023-04-07T01:20:29.040Z,5.68
2023-04-07T01:24:59.195Z,5.43
2023-04-07T01:29:24.987Z,5.07
2023-04-07T01:33:34.946Z,4.75
2023-04-07T01:37:40.509Z,5.38
2023-04-07T01:41:44.363Z,5.53
2023-04-07T01:45:50.577Z,5.15
2023-04-07T01:49:54.298Z,5.15
2023-04-07T01:53:57.855Z,5.55
2023-04-07T01:58:08.701Z,6.70
2023-04-07T02:02:13.538Z,6.43
2023-04-07T02:06:21.338Z,5.65
2023-04-07T02:10:27.363Z,5.70
2023-04-07T02:14:31.720Z,6.00
2023-04-07T02:18:37.573Z,6.85
2023-04-07T02:22:41.367Z,6.05
2023-04-07T02:26:44.308Z,5.95
2023-04-07T02:30:49.600Z,5.50
2023-04-07T02:34:55.392Z,6.13
2023-04-07T02:38:59.654Z,5.63
2023-04-07T02:43:03.175Z,4.82
2023-04-07T02:47:06.377Z,6.18
2023-04-07T02:51:11.554Z,4.95
2023-04-07T02:55:14.532Z,5.55
2023-04-07T02:59:17.459Z,5.55
2023-04-07T03:03:20.615Z,4.82
2023-04-07T03:07:25.991Z,5.15
2023-04-07T03:11:30.461Z,5.75
2023-04-07T03:15:34.213Z,6.03
2023-04-07T03:19:37.073Z,5.00
2023-04-07T03:23:42.065Z,4.22
2023-04-07T03:27:45.053Z,6.15
2023-04-07T03:31:47.945Z,6.22
2023-04-07T03:35:51.421Z,6.00
2023-04-07T03:39:56.438Z,5.18
2023-04-07T03:44:00.746Z,4.78
2023-04-07T03:48:04.280Z,5.43
2023-04-07T03:52:07.399Z,5.22
2023-04-07T03:56:12.014Z,5.13
2023-04-07T04:00:15.906Z,4.30
2023-04-07T04:04:19.982Z,4.90
2023-04-07T04:08:22.983Z,5.25
2023-04-07T04:12:27.769Z,5.45
2023-04-07T04:16:31.972Z,5.20
2023-04-07T04:20:35.995Z,5.13
2023-04-07T04:24:39.062Z,5.13
2023-04-07T04:28:44.358Z,6.20
2023-04-07T04:32:47.781Z,4.32
2023-04-07T04:36:51.539Z,4.32
2023-04-07T04:40:54.540Z,5.03
2023-04-07T04:44:59.043Z,5.50
2023-04-07T04:49:01.930Z,5.00
2023-04-07T04:53:05.484Z,4.20
2023-04-07T04:57:09.573Z,5.57
2023-04-07T05:01:14.915Z,6.38
2023-04-07T05:05:18.250Z,5.50
2023-04-07T05:09:21.642Z,6.13
2023-04-07T05:13:26.164Z,6.32
2023-04-07T05:17:31.169Z,5.55
2023-04-07T05:21:34.433Z,5.18
2023-04-07T05:25:38.387Z,6.90
2023-04-07T05:29:41.916Z,4.80
2023-04-07T05:33:47.385Z,5.00
2023-04-07T05:37:50.680Z,5.70
2023-04-07T05:41:54.870Z,5.93
2023-04-07T05:45:58.557Z,5.53
2023-04-07T05:50:03.837Z,6.07
2023-04-07T05:54:07.444Z,4.88
2023-04-07T05:58:10.795Z,6.82
2023-04-07T06:02:15.281Z,6.43
2023-04-07T06:06:20.760Z,5.53
2023-04-07T06:10:24.067Z,5.72
2023-04-07T06:14:27.790Z,5.15
2023-04-07T06:18:30.883Z,5.97
2023-04-07T06:22:36.152Z,5.90
2023-04-07T06:26:41.412Z,5.32
2023-04-07T06:30:45.507Z,5.93
2023-04-07T06:34:48.418Z,5.65
2023-04-07T06:38:53.368Z,5.57
2023-04-07T06:42:56.667Z,4.75
2023-04-07T06:47:00.390Z,4.40
2023-04-07T06:51:03.491Z,4.75
2023-04-07T06:55:09.710Z,5.03
2023-04-07T06:59:12.706Z,6.18
2023-04-07T07:03:16.416Z,5.53
2023-04-07T07:07:19.524Z,6.10
2023-04-07T07:11:24.261Z,4.30
2023-04-07T07:15:27.841Z,5.93
2023-04-07T07:19:31.346Z,6.10
2023-04-07T07:23:34.852Z,5.93
2023-04-07T07:27:39.786Z,5.45
2023-04-07T07:31:43.052Z,5.93
2023-04-07T07:35:50.054Z,6.15
2023-04-07T07:39:53.549Z,5.00
2023-04-07T07:43:58.521Z,6.00
2023-04-07T07:48:01.590Z,5.22
2023-04-07T07:52:05.183Z,5.45
2023-04-07T07:56:08.284Z,5.63
2023-04-07T08:00:15.116Z,4.50
2023-04-07T08:04:18.552Z,4.78
2023-04-07T08:08:22.512Z,4.70
2023-04-07T08:12:25.898Z,5.40
2023-04-07T08:16:31.088Z,5.45
2023-04-07T08:20:36.099Z,5.82
2023-04-07T08:24:40.095Z,5.63
2023-04-07T08:28:43.321Z,5.35
2023-04-07T08:32:49.167Z,5.00
2023-04-07T08:36:52.277Z,5.90
2023-04-07T08:41:00.232Z,6.00
2023-04-07T08:45:06.105Z,5.53
2023-04-07T08:49:14.793Z,4.93
2023-04-07T08:53:23.105Z,6.20
2023-04-07T08:57:27.177Z,5.57
2023-04-07T09:01:32.023Z,4.85
2023-04-07T09:05:38.507Z,5.32
2023-04-07T09:09:41.683Z,5.00
2023-04-07T09:13:45.008Z,5.15
2023-04-07T09:17:48.612Z,4.88
2023-04-07T09:21:54.381Z,5.40
2023-04-07T09:26:00.150Z,5.55
2023-04-07T09:30:13.100Z,7.18
2023-04-07T09:38:36.010Z,6.10
2023-04-07T09:42:47.137Z,4.45
2023-04-07T09:46:51.592Z,5.55
2023-04-07T09:51:07.370Z,5.95
2023-04-07T09:55:12.076Z,5.57
2023-04-07T09:59:17.422Z,6.03
2023-04-07T10:03:21.338Z,6.13
2023-04-07T10:07:24.493Z,6.72
2023-04-07T10:11:29.834Z,5.78
2023-04-07T10:15:33.406Z,5.63
2023-04-07T10:19:37.868Z,5.65
2023-04-07T10:23:58.081Z,4.80
2023-04-07T10:28:08.101Z,5.72
2023-04-07T10:32:11.883Z,5.47
2023-04-07T10:36:15.312Z,4.57
2023-04-07T10:40:37.351Z,4.53
2023-04-07T10:44:51.019Z,4.37
2023-04-07T10:49:10.543Z,4.40
2023-04-07T10:53:15.457Z,4.78
2023-04-07T10:57:18.977Z,3.92
2023-04-07T11:01:24.350Z,5.38
2023-04-07T11:05:27.495Z,4.68
2023-04-07T11:09:30.897Z,4.88
2023-04-07T11:13:42.648Z,4.43
2023-04-07T11:17:47.825Z,4.43
2023-04-07T11:21:51.364Z,5.00
2023-04-07T11:26:01.378Z,5.65
2023-04-07T11:30:10.162Z,5.63
2023-04-07T11:34:15.781Z,4.78
2023-04-07T11:38:19.995Z,4.60
2023-04-07T11:46:56.249Z,5.18
2023-04-07T11:51:01.764Z,4.57
2023-04-07T11:55:05.835Z,4.78
2023-04-07T11:59:08.990Z,4.57
2023-04-07T12:03:15.021Z,5.15
2023-04-07T12:07:21.104Z,5.38
2023-04-07T12:11:25.400Z,4.93
2023-04-07T12:15:28.549Z,4.75
2023-04-07T12:19:36.436Z,4.65
2023-04-07T12:23:41.243Z,5.78
2023-04-07T12:27:45.067Z,4.95
2023-04-07T12:31:50.832Z,4.78
2023-04-07T12:35:54.716Z,4.63
2023-04-07T12:40:00.121Z,5.22
2023-04-07T12:44:03.453Z,5.80
2023-04-07T12:48:06.605Z,4.93
2023-04-07T12:52:09.759Z,5.15
2023-04-07T12:56:14.184Z,5.57
2023-04-07T13:00:18.150Z,5.72
2023-04-07T13:04:21.442Z,4.85
2023-04-07T13:08:24.881Z,4.88
2023-04-07T13:12:29.493Z,5.22
2023-04-07T13:16:33.468Z,4.85
2023-04-07T13:20:36.965Z,5.50
2023-04-07T13:24:42.273Z,6.22
2023-04-07T13:28:48.337Z,6.30
2023-04-07T13:32:51.671Z,6.40
2023-04-07T13:36:56.691Z,4.78
2023-04-07T13:40:59.738Z,5.03
2023-04-07T13:45:04.654Z,5.07
2023-04-07T13:49:08.039Z,5.78
2023-04-07T13:53:11.146Z,4.65
2023-04-07T13:57:21.314Z,5.75
2023-04-07T14:01:26.395Z,6.05
2023-04-07T14:05:30.030Z,4.93
2023-04-07T14:09:33.128Z,5.93
2023-04-07T14:13:36.901Z,5.03
2023-04-07T14:17:41.529Z,4.15
2023-04-07T14:21:44.862Z,4.53
2023-04-07T14:25:48.091Z,4.78
2023-04-07T14:29:51.528Z,4.10
2023-04-07T14:33:56.925Z,4.32
2023-04-07T14:38:00.121Z,4.05
2023-04-07T14:42:03.077Z,3.47
2023-04-07T14:46:07.632Z,3.88
2023-04-07T14:50:12.797Z,4.50
2023-04-07T14:54:15.977Z,3.45
2023-04-07T14:58:19.166Z,3.75
2023-04-07T15:02:23.780Z,4.05
2023-04-07T15:06:28.683Z,3.50
2023-04-07T15:10:35.570Z,4.22
2023-04-07T15:14:38.634Z,4.18
2023-04-07T15:18:43.542Z,4.43
2023-04-07T15:22:48.214Z,4.47
2023-04-07T15:26:51.256Z,4.20
2023-04-07T15:30:54.103Z,4.80
2023-04-07T15:34:57.278Z,4.38
2023-04-07T15:39:05.613Z,4.00
2023-04-07T15:43:11.426Z,3.53
2023-04-07T15:47:14.421Z,4.63
2023-04-07T15:51:17.601Z,3.65
2023-04-07T15:55:22.496Z,3.85
2023-04-07T15:59:26.035Z,3.42
2023-04-07T16:03:29.349Z,4.15
2023-04-07T16:07:33.102Z,3.45
2023-04-07T16:11:37.677Z,2.63
2023-04-07T16:15:41.879Z,3.47
2023-04-07T16:19:45.037Z,3.13
2023-04-07T16:23:48.861Z,2.67
2023-04-07T16:27:55.159Z,4.20
2023-04-07T16:31:58.455Z,4.35
2023-04-07T16:36:01.640Z,2.88
2023-04-07T16:40:05.640Z,3.28
2023-04-07T16:44:10.546Z,4.55
2023-04-07T16:48:13.683Z,3.05
2023-04-07T16:52:17.798Z,3.42
2023-04-07T16:56:24.521Z,3.75
2023-04-07T17:00:29.676Z,3.65
2023-04-07T17:08:41.977Z,4.13
2023-04-07T17:12:44.977Z,3.03
2023-04-07T17:16:49.963Z,4.55
2023-04-07T17:20:53.670Z,4.05
2023-04-07T17:24:57.333Z,5.05
2023-04-07T17:29:00.949Z,4.63
2023-04-07T17:33:08.723Z,4.68
2023-04-07T17:37:11.848Z,4.63
2023-04-07T17:41:15.319Z,5.93
2023-04-07T17:45:19.538Z,5.60
2023-04-07T17:49:25.283Z,5.03
2023-04-07T17:53:28.218Z,4.80
2023-04-07T17:57:31.606Z,4.30
2023-04-07T18:01:34.715Z,4.95
2023-04-07T18:05:44.516Z,5.20
2023-04-07T18:09:47.714Z,5.25
2023-04-07T18:13:51.655Z,4.65
2023-04-07T18:17:55.151Z,5.45
2023-04-07T18:22:01.362Z,4.60
2023-04-07T18:26:05.408Z,5.32
2023-04-07T18:30:11.146Z,5.57
2023-04-07T18:34:14.246Z,5.10
2023-04-07T18:38:19.588Z,5.70
2023-04-07T18:42:22.770Z,5.07
2023-04-07T18:46:26.426Z,5.95
2023-04-07T18:50:30.499Z,5.35
2023-04-07T18:54:35.579Z,5.40
2023-04-07T18:58:44.008Z,5.68
2023-04-07T19:02:47.923Z,4.45
2023-04-07T19:06:52.064Z,4.28
2023-04-07T19:10:57.118Z,5.28
2023-04-07T19:15:00.346Z,5.40
2023-04-07T19:19:05.311Z,5.80
2023-04-07T19:23:09.099Z,4.22
2023-04-07T19:27:15.570Z,5.50
2023-04-07T19:31:18.752Z,5.57
2023-04-07T19:35:22.817Z,5.28
2023-04-07T19:39:26.315Z,5.70
2023-04-07T19:43:31.820Z,5.93
2023-04-07T19:47:35.291Z,5.20
2023-04-07T19:51:38.674Z,5.40
2023-04-07T19:55:41.801Z,5.13
2023-04-07T19:59:46.664Z,6.40
2023-04-07T20:03:49.942Z,5.32
2023-04-07T20:07:53.984Z,4.88
2023-04-07T20:11:57.762Z,5.63
2023-04-07T20:16:03.040Z,5.70
2023-04-07T20:20:07.610Z,6.05
2023-04-07T20:24:11.887Z,3.90
2023-04-07T20:28:15.955Z,5.28
2023-04-07T20:32:21.406Z,5.90
2023-04-07T20:36:24.684Z,6.07
2023-04-07T20:40:28.120Z,4.38
2023-04-07T20:44:34.484Z,5.18
2023-04-07T20:48:40.091Z,3.83
2023-04-07T20:52:43.895Z,5.25
2023-04-07T20:56:48.091Z,4.93
2023-04-07T21:00:56.708Z,5.55
2023-04-07T21:05:01.933Z,4.68
2023-04-07T21:09:06.081Z,4.80
2023-04-07T21:17:29.845Z,4.78
2023-04-07T21:21:35.063Z,5.35
2023-04-07T21:25:39.021Z,5.43
2023-04-07T21:29:42.676Z,4.45
2023-04-07T21:33:46.814Z,4.30
2023-04-07T21:37:51.616Z,5.15
2023-04-07T21:41:54.832Z,3.95
2023-04-07T21:45:58.182Z,5.22
2023-04-07T21:50:01.782Z,5.25
2023-04-07T21:54:06.372Z,5.22
2023-04-07T21:58:09.882Z,5.32
2023-04-07T22:02:13.725Z,5.30
2023-04-07T22:06:16.796Z,5.25
2023-04-07T22:10:21.768Z,4.82
2023-04-07T22:14:27.495Z,5.03
2023-04-07T22:18:31.171Z,4.25
2023-04-07T22:22:52.053Z,4.82
2023-04-07T22:26:58.461Z,6.00
2023-04-07T22:31:02.269Z,5.00
2023-04-07T22:35:07.009Z,5.47
2023-04-07T22:39:10.595Z,6.60
2023-04-07T22:43:15.338Z,7.68
2023-04-07T22:47:19.012Z,7.85
2023-04-07T22:51:22.285Z,7.00
2023-04-07T22:55:25.556Z,7.43
2023-04-07T22:59:30.261Z,7.47
2023-04-07T23:03:34.171Z,5.60
2023-04-07T23:07:37.657Z,6.30
2023-04-07T23:11:41.165Z,6.72
2023-04-07T23:15:45.872Z,7.10
2023-04-07T23:19:49.815Z,8.38
2023-04-07T23:23:52.988Z,6.78
2023-04-07T23:27:56.686Z,7.82
2023-04-07T23:32:01.225Z,7.07
2023-04-07T23:36:04.458Z,8.18
2023-04-07T23:40:08.759Z,7.03
2023-04-07T23:44:12.322Z,6.40
2023-04-07T23:48:17.424Z,5.90
2023-04-07T23:52:22.702Z,7.32
2023-04-07T23:56:26.093Z,6.55
